Time;durP1;ratioP1;P1;durP2;ratioP2;P2;SDS_P1;SDS_P2;PMS_P1;PMS_P2;Temp;Humidity;BMP_temperature;BMP_pressure;BME280_temperature;BME280_humidity;BME280_pressure;Samples;Min_cycle;Max_cycle;Signal;HPM_P1;HPM_P2
2023/01/04 00:01:20;;;;;;;11.68;3.33;;;;;;;7.27;100.00;101787.09;5246296;28;20333;-74
2023/01/04 00:03:52;;;;;;;11.55;3.72;;;;;;;7.28;100.00;101782.63;5249416;28;20028;-74
2023/01/04 00:06:23;;;;;;;10.45;3.55;;;;;;;7.27;100.00;101773.81;5252033;28;20483;-74
2023/01/04 00:08:54;;;;;;;8.55;3.55;;;;;;;7.29;100.00;101782.56;5251734;28;20283;-74
2023/01/04 00:11:26;;;;;;;9.63;3.15;;;;;;;7.29;100.00;101771.06;5249903;28;20029;-74
2023/01/04 00:14:00;;;;;;;11.70;3.83;;;;;;;7.28;100.00;101772.00;5253946;28;20052;-75
2023/01/04 00:16:31;;;;;;;10.20;3.53;;;;;;;7.28;100.00;101751.63;5252425;28;20028;-75
2023/01/04 00:19:03;;;;;;;13.25;3.85;;;;;;;7.29;100.00;101756.00;5250744;28;20054;-75
2023/01/04 00:21:34;;;;;;;10.13;3.67;;;;;;;7.30;100.00;101748.91;5247816;28;20083;-75
2023/01/04 00:24:05;;;;;;;11.45;3.70;;;;;;;7.28;100.00;101740.16;5249229;28;20040;-76
2023/01/04 00:26:37;;;;;;;12.90;4.22;;;;;;;7.25;100.00;101742.03;5252193;28;20033;-77
2023/01/04 00:29:11;;;;;;;10.63;3.58;;;;;;;7.29;100.00;101737.44;5254080;28;20447;-77
2023/01/04 00:31:43;;;;;;;12.23;3.75;;;;;;;7.29;100.00;101723.28;5250937;28;20083;-77
2023/01/04 00:34:17;;;;;;;10.13;3.60;;;;;;;7.29;100.00;101733.91;5249179;28;20039;-77
2023/01/04 00:36:48;;;;;;;10.48;4.38;;;;;;;7.31;100.00;101708.16;5255644;28;20029;-78
2023/01/04 00:39:19;;;;;;;7.80;3.80;;;;;;;7.29;100.00;101717.97;5248659;28;20025;-78
2023/01/04 00:41:52;;;;;;;8.77;3.97;;;;;;;7.30;100.00;101717.03;5254170;28;20024;-78
2023/01/04 00:44:24;;;;;;;12.82;4.18;;;;;;;7.31;100.00;101702.84;5256402;28;20033;-79
2023/01/04 00:46:56;;;;;;;6.88;4.00;;;;;;;7.31;100.00;101708.16;5252831;28;20385;-78
2023/01/04 00:49:29;;;;;;;9.68;3.63;;;;;;;7.32;100.00;101700.09;5256626;28;20396;-79
2023/01/04 00:52:00;;;;;;;9.98;3.80;;;;;;;7.34;100.00;101694.72;5257040;28;20102;-79
2023/01/04 00:54:31;;;;;;;10.13;3.78;;;;;;;7.36;100.00;101692.84;5256182;28;20530;-79
2023/01/04 00:57:04;;;;;;;10.15;4.05;;;;;;;7.36;100.00;101692.84;5257273;28;20033;-80
2023/01/04 00:59:35;;;;;;;7.95;4.07;;;;;;;7.37;100.00;101683.97;5252250;28;20040;-79
2023/01/04 01:02:06;;;;;;;7.63;4.00;;;;;;;7.41;100.00;101680.22;5254044;28;20033;-79
2023/01/04 01:04:38;;;;;;;9.55;4.03;;;;;;;7.41;100.00;101674.91;5255033;28;20060;-79
2023/01/04 01:07:09;;;;;;;9.65;4.30;;;;;;;7.42;100.00;101671.28;5251105;28;20044;-80
2023/01/04 01:09:40;;;;;;;11.65;4.75;;;;;;;7.45;100.00;101677.31;5249232;28;20028;-80
2023/01/04 01:12:11;;;;;;;10.23;3.75;;;;;;;7.49;100.00;101670.06;5248313;28;20029;-80
2023/01/04 01:14:43;;;;;;;6.70;2.75;;;;;;;7.47;100.00;101662.16;5245703;28;20028;-81
2023/01/04 01:17:14;;;;;;;6.80;3.10;;;;;;;7.51;100.00;101659.38;5250014;28;20033;-81
2023/01/04 01:19:45;;;;;;;9.15;3.03;;;;;;;7.51;100.00;101654.91;5250521;28;20178;-82
2023/01/04 01:22:17;;;;;;;6.07;3.08;;;;;;;7.54;100.00;101656.56;5254081;28;20028;-82
2023/01/04 01:24:48;;;;;;;6.97;3.28;;;;;;;7.55;100.00;101656.47;5250413;28;20486;-82
2023/01/04 01:27:19;;;;;;;6.43;2.65;;;;;;;7.55;100.00;101655.63;5251940;28;20094;-82
2023/01/04 01:29:50;;;;;;;7.85;3.20;;;;;;;7.56;100.00;101658.19;5251185;28;20040;-82
2023/01/04 01:32:22;;;;;;;6.88;2.88;;;;;;;7.55;100.00;101651.16;5254016;28;20069;-82
2023/01/04 01:34:53;;;;;;;8.48;3.08;;;;;;;7.57;100.00;101651.09;5250800;28;20541;-82
2023/01/04 01:37:24;;;;;;;9.75;3.47;;;;;;;7.60;100.00;101648.28;5250651;28;20111;-81
2023/01/04 01:39:56;;;;;;;6.22;3.15;;;;;;;7.61;100.00;101636.72;5249794;28;20024;-82
2023/01/04 01:42:27;;;;;;;6.18;2.90;;;;;;;7.62;100.00;101641.09;5251259;28;20092;-81
2023/01/04 01:45:09;;;;;;;7.78;3.20;;;;;;;7.64;100.00;101637.41;5249213;28;20433;-82
2023/01/04 01:47:43;;;;;;;8.55;3.17;;;;;;;7.64;100.00;101645.38;5252110;28;20028;-82
2023/01/04 01:50:26;;;;;;;8.88;3.35;;;;;;;7.65;100.00;101644.47;5252867;28;20630;-82
2023/01/04 01:52:59;;;;;;;8.40;3.05;;;;;;;7.63;100.00;101646.34;5251209;28;20495;-82
2023/01/04 01:55:33;;;;;;;7.88;3.30;;;;;;;7.65;100.00;101639.16;5252075;28;20508;-82
2023/01/04 01:58:08;;;;;;;10.43;3.33;;;;;;;7.70;100.00;101627.41;5254103;28;20556;-82
2023/01/04 02:00:39;;;;;;;5.60;2.83;;;;;;;7.70;100.00;101628.28;5250317;28;20029;-82
2023/01/04 02:03:25;;;;;;;6.18;2.80;;;;;;;7.72;100.00;101625.53;5252014;28;20537;-82
2023/01/04 02:06:00;;;;;;;5.28;2.55;;;;;;;7.73;100.00;101624.59;5249938;28;20029;-81
2023/01/04 02:08:31;;;;;;;5.10;2.85;;;;;;;7.74;100.00;101626.31;5252352;28;20029;-82
2023/01/04 02:11:04;;;;;;;7.15;2.70;;;;;;;7.77;100.00;101637.66;5252159;28;20025;-82
2023/01/04 02:16:35;;;;;;;5.05;2.40;;;;;;;7.81;100.00;101641.84;5250454;28;20049;-81
2023/01/04 02:19:32;;;;;;;5.40;2.10;;;;;;;7.82;100.00;101642.72;5253894;28;20118;-81
2023/01/04 02:22:06;;;;;;;4.65;2.20;;;;;;;7.85;100.00;101624.81;5249534;28;20033;-81
2023/01/04 02:25:08;;;;;;;7.25;2.47;;;;;;;7.87;100.00;101635.38;5247945;28;20446;-81
2023/01/04 02:27:45;;;;;;;5.68;2.20;;;;;;;7.89;100.00;101620.19;5244630;28;20074;-81
2023/01/04 02:30:49;;;;;;;6.57;2.30;;;;;;;7.90;100.00;101621.94;5246633;28;20028;-81
2023/01/04 02:33:32;;;;;;;7.65;2.38;;;;;;;7.92;100.00;101638.66;5248425;28;20035;-83
2023/01/04 02:36:16;;;;;;;3.95;2.40;;;;;;;7.97;100.00;101635.72;5246433;28;20139;-82
2023/01/04 02:39:09;;;;;;;6.00;2.05;;;;;;;8.01;100.00;101603.59;5249707;28;20098;-82
2023/01/04 02:41:49;;;;;;;5.40;1.90;;;;;;;8.00;100.00;101587.75;5248715;28;20078;-81
2023/01/04 02:50:34;;;;;;;4.47;2.00;;;;;;;8.07;100.00;101577.63;5251997;28;20029;-82
2023/01/04 02:53:08;;;;;;;4.32;1.70;;;;;;;8.08;100.00;101574.06;5251798;28;20509;-82
2023/01/04 02:56:04;;;;;;;4.97;1.90;;;;;;;8.12;100.00;101571.13;5251920;28;20029;-83
2023/01/04 02:58:50;;;;;;;3.28;1.73;;;;;;;8.12;100.00;101570.28;5254117;28;20134;-82
2023/01/04 03:08:10;;;;;;;3.13;1.95;;;;;;;8.18;100.00;101564.63;5248862;28;20045;-82
2023/01/04 03:11:01;;;;;;;4.32;1.77;;;;;;;8.17;100.00;101555.78;5251183;28;20067;-82
2023/01/04 03:13:41;;;;;;;3.65;1.80;;;;;;;8.19;100.00;101555.72;5251143;28;20054;-82
2023/01/04 03:16:19;;;;;;;4.75;2.30;;;;;;;8.21;100.00;101548.50;5250245;28;20497;-82
2023/01/04 03:18:53;;;;;;;3.75;2.17;;;;;;;8.22;100.00;101545.75;5252684;28;20045;-82
2023/01/04 03:21:27;;;;;;;5.88;2.50;;;;;;;8.23;100.00;101549.28;5247646;28;20095;-82
2023/01/04 03:36:10;;;;;;;5.25;2.90;;;;;;;8.32;100.00;101535.50;5246959;28;20049;-81
2023/01/04 03:50:52;;;;;;;6.22;3.00;;;;;;;8.44;100.00;101515.34;5246702;28;20024;-81
2023/01/04 03:53:24;;;;;;;5.05;3.00;;;;;;;8.44;100.00;101510.88;5245984;28;20087;-81
2023/01/04 03:55:57;;;;;;;5.03;3.08;;;;;;;8.49;100.00;101507.09;5244967;28;20067;-80
2023/01/04 03:58:28;;;;;;;5.95;3.08;;;;;;;8.51;100.00;101500.72;5247910;28;20644;-81
2023/01/04 04:01:04;;;;;;;6.05;3.22;;;;;;;8.53;100.00;101496.19;5246334;28;20033;-81
2023/01/04 04:09:15;;;;;;;4.70;2.95;;;;;;;8.58;100.00;101493.28;5248490;28;20037;-81
2023/01/04 04:11:47;;;;;;;5.50;3.28;;;;;;;8.60;100.00;101491.38;5247871;28;20052;-81
2023/01/04 04:14:18;;;;;;;4.22;3.13;;;;;;;8.62;100.00;101485.00;5245617;28;20090;-81
2023/01/04 04:16:50;;;;;;;6.57;3.42;;;;;;;8.64;100.00;101482.28;5246236;28;20056;-81
2023/01/04 04:19:21;;;;;;;4.68;3.17;;;;;;;8.64;100.00;101468.97;5248745;28;20479;-81
2023/01/04 04:21:52;;;;;;;7.03;3.83;;;;;;;8.64;100.00;101474.28;5247375;28;20028;-80
2023/01/04 04:24:25;;;;;;;7.05;4.13;;;;;;;8.66;100.00;101468.88;5246348;28;20033;-80
2023/01/04 04:26:56;;;;;;;8.80;3.92;;;;;;;8.67;100.00;101462.59;5247455;28;20087;-81
2023/01/04 04:29:27;;;;;;;5.80;3.65;;;;;;;8.70;100.00;101471.28;5247632;28;20514;-81
2023/01/04 04:31:59;;;;;;;7.03;4.10;;;;;;;8.71;100.00;101469.50;5246588;28;20843;-80
2023/01/04 04:34:30;;;;;;;7.38;3.97;;;;;;;8.73;100.00;101455.13;5253909;28;20033;-81
2023/01/04 04:37:02;;;;;;;6.93;4.13;;;;;;;8.76;100.00;101443.44;5250519;28;20587;-81
2023/01/04 04:39:33;;;;;;;7.82;4.10;;;;;;;8.76;100.00;101443.44;5246045;28;20410;-81
2023/01/04 04:42:04;;;;;;;5.72;3.92;;;;;;;8.79;100.00;101443.28;5244058;28;20029;-81
2023/01/04 04:44:35;;;;;;;8.57;4.50;;;;;;;8.80;100.00;101439.66;5251675;28;20029;-81
2023/01/04 04:47:07;;;;;;;6.22;4.10;;;;;;;8.86;100.00;101449.06;5244674;28;20056;-80
2023/01/04 04:49:38;;;;;;;8.30;4.18;;;;;;;8.88;100.00;101436.53;5248033;28;20037;-81
2023/01/04 04:52:09;;;;;;;8.02;3.78;;;;;;;8.88;100.00;101432.09;5247951;28;20021;-80
2023/01/04 04:54:40;;;;;;;6.47;3.83;;;;;;;8.90;100.00;101429.31;5248043;28;20040;-81
2023/01/04 04:57:12;;;;;;;5.93;3.88;;;;;;;8.94;100.00;101430.88;5249574;28;20124;-81
2023/01/04 04:59:43;;;;;;;5.35;3.70;;;;;;;8.96;100.00;101431.63;5253610;28;20025;-81
2023/01/04 05:02:14;;;;;;;6.25;4.00;;;;;;;8.97;100.00;101430.66;5250385;28;20032;-80
2023/01/04 05:04:45;;;;;;;10.32;4.15;;;;;;;8.98;100.00;101427.06;5251192;28;20067;-81
2023/01/04 05:07:17;;;;;;;7.80;3.95;;;;;;;9.01;100.00;101421.53;5251146;28;20108;-80
2023/01/04 05:09:48;;;;;;;7.78;4.07;;;;;;;9.03;100.00;101422.31;5251257;28;20035;-80
2023/01/04 05:15:09;;;;;;;7.80;4.53;;;;;;;9.07;100.00;101422.97;5249765;28;20975;-80
2023/01/04 05:17:41;;;;;;;6.40;3.60;;;;;;;9.08;100.00;101422.88;5246458;28;20024;-80
2023/01/04 05:20:12;;;;;;;7.32;3.80;;;;;;;9.08;100.00;101406.91;5250370;28;20686;-80
2023/01/04 05:22:43;;;;;;;7.65;3.58;;;;;;;9.12;100.00;101419.09;5252684;28;20386;-80
2023/01/04 05:25:15;;;;;;;10.55;3.83;;;;;;;9.12;100.00;101413.75;5256040;28;20059;-80
2023/01/04 05:27:46;;;;;;;8.50;3.72;;;;;;;9.14;100.00;101403.88;5252649;28;20032;-80
2023/01/04 05:33:08;;;;;;;7.15;3.60;;;;;;;9.15;100.00;101396.75;5251595;28;20045;-80
2023/01/04 05:35:40;;;;;;;6.68;3.17;;;;;;;9.15;100.00;101405.59;5249159;28;20037;-80
2023/01/04 05:38:12;;;;;;;5.15;3.05;;;;;;;9.22;100.00;101398.94;5249515;28;20033;-80
2023/01/04 05:40:43;;;;;;;6.03;3.63;;;;;;;9.27;100.00;101401.31;5253472;28;20043;-80
2023/01/04 05:43:16;;;;;;;6.70;3.03;;;;;;;9.27;100.00;101390.66;5250828;28;21064;-80
2023/01/04 05:45:53;;;;;;;9.32;3.15;;;;;;;9.29;100.00;101396.75;5249798;28;20033;-80
2023/01/04 05:48:24;;;;;;;9.20;3.70;;;;;;;9.32;100.00;101390.38;5250050;28;20565;-80
2023/01/04 05:50:55;;;;;;;7.03;3.25;;;;;;;9.32;100.00;101395.69;5251667;28;20112;-80
2023/01/04 05:53:26;;;;;;;7.28;3.60;;;;;;;9.34;100.00;101393.78;5252443;28;20029;-80
2023/01/04 05:55:58;;;;;;;6.55;3.60;;;;;;;9.33;100.00;101378.78;5249111;28;20035;-81
2023/01/04 05:58:29;;;;;;;5.75;3.20;;;;;;;9.32;100.00;101364.63;5247713;28;20028;-83
2023/01/04 06:01:00;;;;;;;6.50;3.03;;;;;;;9.32;100.00;101377.06;5248409;28;20025;-79
2023/01/04 06:03:32;;;;;;;5.38;2.80;;;;;;;9.35;100.00;101375.06;5251322;28;20160;-79
2023/01/04 06:06:03;;;;;;;7.85;3.30;;;;;;;9.35;100.00;101375.06;5254449;28;20035;-80
2023/01/04 06:08:34;;;;;;;4.65;2.47;;;;;;;9.36;100.00;101375.94;5252635;28;20044;-80
2023/01/04 06:11:06;;;;;;;4.93;2.80;;;;;;;9.39;100.00;101383.72;5251408;28;20032;-80
2023/01/04 06:13:37;;;;;;;6.93;3.20;;;;;;;9.41;100.00;101381.81;5252963;28;20108;-80
2023/01/04 06:16:08;;;;;;;4.60;3.10;;;;;;;9.45;100.00;101385.97;5249819;28;20348;-80
2023/01/04 06:18:39;;;;;;;6.53;3.10;;;;;;;9.45;100.00;101396.63;5246974;28;20087;-80
2023/01/04 06:21:11;;;;;;;8.10;3.33;;;;;;;9.45;100.00;101403.78;5249637;28;20028;-80
2023/01/04 06:23:42;;;;;;;6.15;3.28;;;;;;;9.50;100.00;101391.03;5257504;28;20033;-80
2023/01/04 06:26:13;;;;;;;6.25;3.00;;;;;;;9.51;100.00;101388.28;5251800;28;20112;-81
2023/01/04 06:28:44;;;;;;;5.85;2.80;;;;;;;9.54;100.00;101376.56;5250237;28;20082;-81
2023/01/04 06:31:16;;;;;;;7.35;3.28;;;;;;;9.51;100.00;101363.44;5251953;28;20021;-80
2023/01/04 06:33:47;;;;;;;7.47;3.08;;;;;;;9.51;100.00;101352.78;5254125;28;20070;-80
2023/01/04 06:36:18;;;;;;;5.05;3.05;;;;;;;9.51;100.00;101350.09;5253984;28;20033;-80
2023/01/04 06:38:50;;;;;;;4.22;2.95;;;;;;;9.53;100.00;101349.09;5252197;28;20067;-80
2023/01/04 06:41:21;;;;;;;7.72;3.17;;;;;;;9.51;100.00;101356.31;5250380;28;21200;-80
2023/01/04 06:43:53;;;;;;;6.75;3.05;;;;;;;9.53;100.00;101358.84;5253060;28;20027;-80
2023/01/04 06:46:24;;;;;;;6.35;2.90;;;;;;;9.52;100.00;101357.16;5254418;28;20024;-80
2023/01/04 06:48:57;;;;;;;5.22;2.92;;;;;;;9.53;100.00;101381.03;5259540;28;20931;-80
2023/01/04 06:51:28;;;;;;;4.85;2.85;;;;;;;9.55;100.00;101381.81;5261331;28;20032;-80
2023/01/04 06:53:59;;;;;;;4.03;2.90;;;;;;;9.55;100.00;101370.28;5259843;28;20035;-81
2023/01/04 06:56:31;;;;;;;7.68;3.00;;;;;;;9.56;100.00;101379.97;5254341;28;20025;-80
2023/01/04 06:59:02;;;;;;;7.10;3.42;;;;;;;9.56;100.00;101367.50;5254863;28;20360;-80
2023/01/04 07:01:34;;;;;;;7.03;3.47;;;;;;;9.60;100.00;101366.34;5253030;28;20126;-80
2023/01/04 07:04:05;;;;;;;3.88;3.03;;;;;;;9.62;100.00;101352.94;5250489;28;20039;-80
2023/01/04 07:06:36;;;;;;;5.20;2.80;;;;;;;9.62;100.00;101359.13;5249697;28;20044;-80
2023/01/04 07:09:07;;;;;;;5.90;3.10;;;;;;;9.65;100.00;101358.09;5250783;28;20025;-79
2023/01/04 07:11:39;;;;;;;4.57;3.22;;;;;;;9.67;100.00;101356.19;5255914;28;20113;-80
2023/01/04 07:14:10;;;;;;;5.30;3.20;;;;;;;9.70;100.00;101344.47;5253651;28;20395;-80
2023/01/04 07:16:41;;;;;;;6.05;2.97;;;;;;;9.70;100.00;101344.47;5252556;28;20470;-80
2023/01/04 07:19:13;;;;;;;4.97;2.33;;;;;;;9.75;100.00;101358.34;5249456;28;20091;-80
2023/01/04 07:21:44;;;;;;;6.40;2.55;;;;;;;9.78;100.00;101343.03;5253917;28;20032;-80
2023/01/04 07:24:15;;;;;;;4.68;2.60;;;;;;;9.80;100.00;101342.91;5256276;28;20048;-80
2023/01/04 07:26:46;;;;;;;4.68;2.40;;;;;;;9.83;100.00;101329.38;5256613;28;20080;-80
2023/01/04 07:29:18;;;;;;;5.45;1.95;;;;;;;9.83;100.00;101302.72;5252656;28;20025;-80
2023/01/04 07:31:51;;;;;;;3.95;1.73;;;;;;;9.82;100.00;101319.69;5257692;28;20025;-80
2023/01/04 07:34:24;;;;;;;4.28;1.70;;;;;;;9.86;100.00;101326.53;5249829;28;20029;-81
2023/01/04 07:36:55;;;;;;;3.65;1.70;;;;;;;9.89;100.00;101320.13;5253865;28;20029;-80
2023/01/04 07:39:27;;;;;;;4.97;1.67;;;;;;;9.93;100.00;101308.31;5254136;28;20083;-80
2023/01/04 07:41:58;;;;;;;4.03;1.50;;;;;;;9.94;100.00;101310.88;5252444;28;20564;-80
2023/01/04 07:44:29;;;;;;;3.17;1.30;;;;;;;9.97;100.00;101313.34;5260385;28;20036;-80
2023/01/04 07:47:01;;;;;;;6.18;1.52;;;;;;;9.96;100.00;101330.28;5253851;28;20033;-80
2023/01/04 07:49:32;;;;;;;4.70;1.92;;;;;;;9.96;100.00;101314.28;5261438;28;21293;-79
2023/01/04 07:52:03;;;;;;;5.47;1.40;;;;;;;9.97;100.00;101310.69;5246046;28;20024;-79
2023/01/04 07:54:35;;;;;;;3.65;1.50;;;;;;;9.99;100.00;101302.56;5251632;28;20047;-79
2023/01/04 07:57:06;;;;;;;6.60;1.42;;;;;;;10.02;100.00;101307.69;5251487;28;20096;-79
2023/01/04 07:59:37;;;;;;;4.65;1.45;;;;;;;10.06;100.00;101297.69;5249703;28;20086;-79
2023/01/04 08:02:10;;;;;;;3.40;1.60;;;;;;;10.07;100.00;101299.38;5248801;28;20025;-79
2023/01/04 08:04:41;;;;;;;6.18;1.70;;;;;;;10.07;100.00;101302.03;5248995;28;20024;-80
2023/01/04 08:07:13;;;;;;;5.93;1.60;;;;;;;10.09;100.00;101297.50;5247682;28;20036;-80
2023/01/04 08:09:44;;;;;;;5.90;1.75;;;;;;;10.08;100.00;101301.94;5257434;28;20865;-80
2023/01/04 08:12:15;;;;;;;3.83;1.50;;;;;;;10.11;100.00;101316.91;5256664;28;20506;-80
2023/01/04 08:14:46;;;;;;;5.53;1.73;;;;;;;10.16;100.00;101322.75;5254802;28;20043;-80
2023/01/04 08:17:18;;;;;;;4.95;1.52;;;;;;;10.17;100.00;101312.00;5253149;28;20518;-80
2023/01/04 08:19:49;;;;;;;5.55;1.70;;;;;;;10.16;100.00;101310.31;5263078;28;20052;-79
2023/01/04 08:22:20;;;;;;;6.72;1.70;;;;;;;10.16;100.00;101309.44;5255475;28;20039;-80
2023/01/04 08:24:52;;;;;;;5.53;1.48;;;;;;;10.16;100.00;101314.75;5254681;28;20028;-80
2023/01/04 08:27:23;;;;;;;6.70;1.33;;;;;;;10.16;100.00;101320.09;5255224;28;20021;-79
2023/01/04 08:29:54;;;;;;;5.30;1.60;;;;;;;10.19;100.00;101322.56;5260562;28;20033;-80
2023/01/04 08:32:26;;;;;;;5.28;1.60;;;;;;;10.30;100.00;101328.06;5259242;28;20379;-80
2023/01/04 08:34:57;;;;;;;4.85;1.75;;;;;;;10.31;100.00;101335.09;5253776;28;20041;-80
2023/01/04 08:37:30;;;;;;;5.75;1.60;;;;;;;10.32;100.00;101334.16;5256679;28;20319;-80
2023/01/04 08:40:02;;;;;;;6.25;1.98;;;;;;;10.32;100.00;101331.47;5257850;28;20025;-79
2023/01/04 08:42:33;;;;;;;6.93;1.70;;;;;;;10.35;100.00;101333.94;5256170;28;20029;-78
2023/01/04 08:45:05;;;;;;;6.22;1.90;;;;;;;10.32;100.00;101326.16;5252390;28;20025;-79
2023/01/04 08:47:36;;;;;;;4.30;1.33;;;;;;;10.36;100.00;101338.31;5253500;28;20033;-79
2023/01/04 08:50:07;;;;;;;6.07;1.90;;;;;;;10.34;100.00;101337.56;5251526;28;20032;-79
2023/01/04 08:52:40;;;;;;;7.65;1.98;;;;;;;10.39;100.00;101330.13;5254483;28;20106;-79
2023/01/04 08:55:11;;;;;;;9.38;2.30;;;;;;;10.41;100.00;101335.31;5254669;28;20059;-79
2023/01/04 08:57:43;;;;;;;6.57;2.05;;;;;;;10.42;100.00;101337.03;5252987;28;20699;-79
2023/01/04 09:00:16;;;;;;;4.47;1.77;;;;;;;10.43;100.00;101345.91;5251826;28;20867;-78
2023/01/04 09:02:47;;;;;;;5.47;1.67;;;;;;;10.44;100.00;101339.63;5252448;28;20110;-79
2023/01/04 09:05:18;;;;;;;7.65;1.95;;;;;;;10.45;100.00;101335.97;5249715;28;20029;-79
2023/01/04 09:07:49;;;;;;;6.82;1.65;;;;;;;10.49;100.00;101341.00;5251719;28;20037;-79
2023/01/04 09:10:21;;;;;;;7.53;2.47;;;;;;;10.50;100.00;101339.19;5249041;28;20036;-78
2023/01/04 09:12:52;;;;;;;6.07;1.40;;;;;;;10.49;100.00;101338.34;5252957;28;20032;-78
2023/01/04 09:15:24;;;;;;;6.13;1.45;;;;;;;10.54;100.00;101333.53;5253747;28;20041;-78
2023/01/04 09:17:55;;;;;;;5.35;1.30;;;;;;;10.56;100.00;101339.59;5248128;28;20041;-78
2023/01/04 09:20:26;;;;;;;4.95;1.48;;;;;;;10.61;100.00;101330.47;5251771;28;20051;-78
2023/01/04 09:22:57;;;;;;;5.55;1.33;;;;;;;10.61;100.00;101335.81;5254523;28;20025;-77
2023/01/04 09:25:29;;;;;;;7.88;1.70;;;;;;;10.61;100.00;101323.31;5253039;28;20035;-78
2023/01/04 09:28:00;;;;;;;6.75;1.42;;;;;;;10.63;100.00;101340.06;5250692;28;20041;-78
2023/01/04 09:30:31;;;;;;;6.13;1.40;;;;;;;10.63;100.00;101334.72;5251867;28;20041;-78
2023/01/04 09:33:03;;;;;;;6.10;1.40;;;;;;;10.63;100.00;101334.72;5254108;28;20536;-78
2023/01/04 09:35:34;;;;;;;4.03;1.40;;;;;;;10.62;100.00;101334.81;5254829;28;20033;-78
2023/01/04 09:38:05;;;;;;;3.72;1.33;;;;;;;10.60;100.00;101337.59;5250359;28;20037;-78
2023/01/04 09:40:52;;;;;;;6.00;1.42;;;;;;;10.60;100.00;101337.59;5249603;28;20047;-78
2023/01/04 09:43:41;;;;;;;4.43;1.40;;;;;;;10.55;100.00;101329.91;5249885;28;20037;-79
2023/01/04 09:46:38;;;;;;;4.55;1.50;;;;;;;10.56;100.00;101334.28;5252654;28;20032;-79
2023/01/04 09:49:24;;;;;;;5.60;1.70;;;;;;;10.55;100.00;101324.56;5253501;28;20837;-78
2023/01/04 09:52:08;;;;;;;8.93;1.90;;;;;;;10.54;100.00;101344.19;5250272;28;20025;-78
2023/01/04 09:54:56;;;;;;;5.78;1.95;;;;;;;10.51;100.00;101336.44;5250646;28;20395;-79
2023/01/04 09:57:44;;;;;;;7.25;2.08;;;;;;;10.52;100.00;101337.28;5254148;28;20040;-79
2023/01/04 10:00:20;;;;;;;4.97;1.90;;;;;;;10.52;100.00;101332.78;5252229;28;20087;-79
2023/01/04 10:02:58;;;;;;;3.97;1.90;;;;;;;10.55;100.00;101321.91;5257892;28;20025;-79
2023/01/04 10:05:32;;;;;;;7.53;2.33;;;;;;;10.55;100.00;101327.25;5255723;28;20454;-79
2023/01/04 10:08:13;;;;;;;5.85;2.00;;;;;;;10.59;100.00;101322.56;5256233;28;20028;-79
2023/01/04 10:11:21;;;;;;;6.65;2.28;;;;;;;10.61;100.00;101315.31;5257617;28;20475;-79
2023/01/04 10:14:21;;;;;;;7.95;2.35;;;;;;;10.59;100.00;101311.88;5249640;28;20025;-80
2023/01/04 10:17:01;;;;;;;6.38;2.90;;;;;;;10.58;100.00;101304.81;5255045;28;20028;-79
2023/01/04 10:19:51;;;;;;;7.25;2.75;;;;;;;10.61;100.00;101304.63;5256003;28;20049;-79
2023/01/04 10:22:34;;;;;;;10.07;2.95;;;;;;;10.59;100.00;101320.72;5257285;28;20036;-80
2023/01/04 10:25:23;;;;;;;5.75;2.63;;;;;;;10.63;100.00;101313.38;5260262;28;20063;-79
2023/01/04 10:28:10;;;;;;;8.80;3.00;;;;;;;10.58;100.00;101319.03;5258290;28;20043;-80
2023/01/04 10:31:08;;;;;;;10.20;3.35;;;;;;;10.61;100.00;101325.13;5257690;28;20024;-80
2023/01/04 10:33:55;;;;;;;8.50;3.03;;;;;;;10.60;100.00;101321.56;5258082;28;20036;-80
2023/01/04 10:36:32;;;;;;;9.65;2.63;;;;;;;10.58;100.00;101311.03;5256564;28;20041;-80
2023/01/04 10:39:12;;;;;;;7.82;2.70;;;;;;;10.59;100.00;101322.56;5256186;28;20036;-80
2023/01/04 10:41:56;;;;;;;9.32;3.20;;;;;;;10.62;100.00;101300.13;5261199;28;20052;-81
2023/01/04 10:44:49;;;;;;;7.50;2.88;;;;;;;10.61;100.00;101303.78;5262296;28;20067;-80
2023/01/04 10:47:46;;;;;;;6.93;2.83;;;;;;;10.63;100.00;101297.38;5258455;28;20487;-79
2023/01/04 10:50:26;;;;;;;10.45;2.92;;;;;;;10.62;100.00;101300.97;5242733;28;20028;-80
2023/01/04 10:53:00;;;;;;;7.97;2.83;;;;;;;10.63;100.00;101292.03;5250550;28;20033;-79
2023/01/04 10:55:44;;;;;;;10.95;3.35;;;;;;;10.61;100.00;101291.28;5252820;28;20048;-80
2023/01/04 10:58:28;;;;;;;6.35;2.80;;;;;;;10.65;100.00;101297.25;5252792;28;20029;-80
2023/01/04 11:01:07;;;;;;;6.00;2.85;;;;;;;10.65;100.00;101291.94;5249455;28;20482;-81
2023/01/04 11:03:50;;;;;;;9.07;2.60;;;;;;;10.65;100.00;101295.44;5250433;28;20029;-81
2023/01/04 11:06:31;;;;;;;7.53;3.08;;;;;;;10.65;100.00;101282.09;5250559;28;20506;-80
2023/01/04 11:09:10;;;;;;;8.30;2.40;;;;;;;10.66;100.00;101289.16;5252737;28;20458;-81
2023/01/04 11:11:44;;;;;;;6.03;2.35;;;;;;;10.64;100.00;101300.88;5248410;28;20025;-81
2023/01/04 11:14:15;;;;;;;5.70;2.25;;;;;;;10.65;100.00;101299.94;5252636;28;20159;-81
2023/01/04 11:16:50;;;;;;;4.28;2.00;;;;;;;10.63;100.00;101301.84;5250125;28;21287;-81
2023/01/04 11:19:21;;;;;;;5.85;2.00;;;;;;;10.65;100.00;101292.78;5251085;28;20053;-81
2023/01/04 11:21:59;;;;;;;7.57;2.00;;;;;;;10.65;100.00;101306.13;5250483;28;20538;-81
2023/01/04 11:24:33;;;;;;;5.53;1.77;;;;;;;10.66;100.00;101293.63;5252605;28;20451;-81
2023/01/04 11:27:10;;;;;;;5.50;1.77;;;;;;;10.65;100.00;101291.94;5254205;28;20032;-81
2023/01/04 11:29:53;;;;;;;3.42;1.58;;;;;;;10.65;100.00;101300.78;5246688;28;20052;-82
2023/01/04 11:32:38;;;;;;;4.32;1.63;;;;;;;10.65;100.00;101294.59;5249760;28;20033;-81
2023/01/04 11:35:09;;;;;;;3.25;1.52;;;;;;;10.64;100.00;101300.88;5251523;28;20032;-81
2023/01/04 11:37:41;;;;;;;5.63;1.60;;;;;;;10.64;100.00;101296.38;5253525;28;20509;-81
2023/01/04 11:40:16;;;;;;;3.03;1.40;;;;;;;10.64;100.00;101291.06;5250780;28;20035;-81
2023/01/04 11:42:50;;;;;;;3.55;1.42;;;;;;;10.65;100.00;101303.44;5252121;28;20656;-81
2023/01/04 11:45:24;;;;;;;4.32;1.40;;;;;;;10.65;100.00;101294.59;5249854;28;20033;-81
2023/01/04 11:47:57;;;;;;;2.55;1.42;;;;;;;10.66;100.00;101286.50;5250657;28;20064;-81
2023/01/04 11:50:39;;;;;;;3.45;1.13;;;;;;;10.66;100.00;101297.16;5248337;28;20029;-81
2023/01/04 11:53:28;;;;;;;2.10;1.00;;;;;;;10.66;100.00;101299.81;5249041;28;20039;-81
2023/01/04 11:56:12;;;;;;;3.33;1.10;;;;;;;10.72;100.00;101306.53;5253442;28;20032;-81
2023/01/04 11:59:02;;;;;;;3.67;0.88;;;;;;;10.65;100.00;101305.28;5250991;28;20669;-81
2023/01/04 12:01:36;;;;;;;3.95;1.02;;;;;;;10.66;100.00;101305.16;5250470;28;20028;-81
2023/01/04 12:04:19;;;;;;;1.73;0.98;;;;;;;10.66;100.00;101302.50;5256771;28;20033;-81
2023/01/04 12:07:05;;;;;;;2.10;0.73;;;;;;;10.68;100.00;101295.25;5254531;28;20159;-81
2023/01/04 12:09:36;;;;;;;2.03;0.70;;;;;;;10.67;100.00;101303.34;5251930;28;20106;-81
2023/01/04 12:12:11;;;;;;;3.30;0.60;;;;;;;10.68;100.00;101305.03;5255155;28;20037;-80
2023/01/04 12:14:47;;;;;;;2.47;0.90;;;;;;;10.70;100.00;101297.78;5256383;28;20361;-81
2023/01/04 12:17:24;;;;;;;2.35;0.70;;;;;;;10.69;100.00;101296.94;5245406;28;20025;-81
2023/01/04 12:19:56;;;;;;;2.17;0.60;;;;;;;10.68;100.00;101292.56;5248231;28;20132;-81
2023/01/04 12:22:36;;;;;;;1.92;0.60;;;;;;;10.71;100.00;101305.69;5250244;28;20029;-81
2023/01/04 12:25:26;;;;;;;1.90;0.60;;;;;;;10.73;100.00;101305.56;5250537;28;20032;-81
2023/01/04 12:27:57;;;;;;;2.10;0.55;;;;;;;10.75;100.00;101301.84;5249848;28;20033;-81
2023/01/04 12:30:44;;;;;;;1.80;0.63;;;;;;;10.77;100.00;101301.72;5247291;28;20028;-81
2023/01/04 12:33:30;;;;;;;2.05;0.63;;;;;;;10.78;100.00;101301.63;5255188;28;20033;-81
2023/01/04 12:36:05;;;;;;;1.45;0.50;;;;;;;10.78;100.00;101293.63;5252249;28;20627;-81
2023/01/04 12:38:55;;;;;;;1.85;0.70;;;;;;;10.79;100.00;101292.63;5258784;28;20025;-81
2023/01/04 12:42:02;;;;;;;2.78;0.60;;;;;;;10.82;100.00;101288.94;5252585;28;20445;-81
2023/01/04 12:44:42;;;;;;;1.65;0.70;;;;;;;10.83;100.00;101292.44;5248100;28;20082;-82
2023/01/04 12:50:19;;;;;;;2.67;0.70;;;;;;;10.83;100.00;101295.09;5256317;28;20044;-81
2023/01/04 12:53:33;;;;;;;1.77;0.70;;;;;;;10.84;100.00;101286.16;5249276;28;20075;-80